GLO1046 SBSP-SBRJ
Flight info
| Callsign | GLO1046 |
|---|---|
| Flight time | N/A |
| Altitude | 25000 |
| Route | NIBRU UZ171 KEVUN |
| Aircraft | B738/M-SDE2E3FGHIRWXY/LB1 |
Departure
| Time | N/A |
|---|---|
| Airport | Congonhas–Deputado Freitas Nobre Airport (SBSP) |
Arrival
| Time | 2026-04-29 00:50 |
|---|---|
| Airport | Santos Dumont Airport (SBRJ) |
| Time | Latitude | Longitude | Altitude | Speed | Heading |
|---|---|---|---|---|---|
| 2026-04-29 00:20 | -23.62612 | -45.83345 | 24016 ft | 414 kts | 77° |
| 2026-04-29 00:20 | -23.62161 | -45.80238 | 24469 ft | 418 kts | 77° |
| 2026-04-29 00:20 | -23.61707 | -45.77113 | 24945 ft | 420 kts | 77° |
| 2026-04-29 00:21 | -23.61248 | -45.73972 | 25045 ft | 424 kts | 77° |
| 2026-04-29 00:21 | -23.60790 | -45.70820 | 25059 ft | 419 kts | 77° |
| 2026-04-29 00:21 | -23.60334 | -45.67670 | 25060 ft | 418 kts | 77° |
| 2026-04-29 00:21 | -23.59887 | -45.64585 | 25067 ft | 416 kts | 77° |
| 2026-04-29 00:22 | -23.59429 | -45.61452 | 25070 ft | 416 kts | 77° |
| 2026-04-29 00:22 | -23.58971 | -45.58330 | 25073 ft | 418 kts | 77° |
| 2026-04-29 00:22 | -23.58509 | -45.55190 | 25075 ft | 417 kts | 77° |
| 2026-04-29 00:22 | -23.58052 | -45.52099 | 25075 ft | 418 kts | 77° |
| 2026-04-29 00:23 | -23.57589 | -45.48961 | 25073 ft | 418 kts | 77° |
| 2026-04-29 00:23 | -23.57114 | -45.45820 | 25074 ft | 416 kts | 76° |
| 2026-04-29 00:23 | -23.56555 | -45.42759 | 25071 ft | 415 kts | 73° |
| 2026-04-29 00:23 | -23.55907 | -45.39678 | 25067 ft | 414 kts | 72° |
| 2026-04-29 00:24 | -23.55234 | -45.36649 | 25064 ft | 414 kts | 72° |
| 2026-04-29 00:24 | -23.54572 | -45.33698 | 25057 ft | 414 kts | 72° |
| 2026-04-29 00:24 | -23.53933 | -45.30820 | 25055 ft | 415 kts | 72° |
| 2026-04-29 00:25 | -23.53261 | -45.27753 | 25052 ft | 414 kts | 72° |
| 2026-04-29 00:25 | -23.52599 | -45.24701 | 25050 ft | 415 kts | 72° |
| 2026-04-29 00:25 | -23.51944 | -45.21662 | 25048 ft | 414 kts | 72° |
| 2026-04-29 00:25 | -23.51279 | -45.18627 | 25042 ft | 414 kts | 71° |
| 2026-04-29 00:26 | -23.50451 | -45.15636 | 25036 ft | 412 kts | 66° |
| 2026-04-29 00:26 | -23.49481 | -45.12720 | 25035 ft | 411 kts | 64° |
| 2026-04-29 00:26 | -23.48454 | -45.09825 | 25030 ft | 409 kts | 64° |
| 2026-04-29 00:26 | -23.47405 | -45.06901 | 25025 ft | 409 kts | 64° |
| 2026-04-29 00:27 | -23.46395 | -45.04043 | 25024 ft | 410 kts | 64° |
| 2026-04-29 00:27 | -23.45391 | -45.01135 | 25024 ft | 408 kts | 65° |
| 2026-04-29 00:27 | -23.44403 | -44.98224 | 25024 ft | 409 kts | 65° |
| 2026-04-29 00:27 | -23.43430 | -44.95333 | 25023 ft | 409 kts | 65° |
| 2026-04-29 00:28 | -23.42447 | -44.92394 | 25024 ft | 410 kts | 65° |
| 2026-04-29 00:28 | -23.41473 | -44.89476 | 25024 ft | 410 kts | 65° |
| 2026-04-29 00:28 | -23.40505 | -44.86569 | 25025 ft | 410 kts | 65° |
| 2026-04-29 00:28 | -23.39538 | -44.83657 | 25024 ft | 409 kts | 65° |
| 2026-04-29 00:29 | -23.38578 | -44.80767 | 25022 ft | 409 kts | 66° |
| 2026-04-29 00:29 | -23.37610 | -44.77846 | 25019 ft | 409 kts | 65° |
| 2026-04-29 00:29 | -23.36655 | -44.74963 | 25015 ft | 409 kts | 65° |
| 2026-04-29 00:29 | -23.35683 | -44.72032 | 24987 ft | 411 kts | 65° |
| 2026-04-29 00:30 | -23.34713 | -44.69112 | 24980 ft | 408 kts | 65° |
| 2026-04-29 00:30 | -23.33767 | -44.66256 | 24978 ft | 397 kts | 65° |
| 2026-04-29 00:30 | -23.32852 | -44.63481 | 24967 ft | 382 kts | 65° |
| 2026-04-29 00:30 | -23.31962 | -44.60789 | 24779 ft | 376 kts | 65° |
| 2026-04-29 00:31 | -23.31064 | -44.58102 | 24420 ft | 384 kts | 65° |
| 2026-04-29 00:31 | -23.30138 | -44.55349 | 23955 ft | 387 kts | 65° |
| 2026-04-29 00:31 | -23.29228 | -44.52636 | 23491 ft | 386 kts | 65° |
| 2026-04-29 00:31 | -23.28314 | -44.49906 | 23021 ft | 385 kts | 65° |
| 2026-04-29 00:32 | -23.27396 | -44.47166 | 22548 ft | 384 kts | 66° |
| 2026-04-29 00:32 | -23.26482 | -44.44433 | 22089 ft | 383 kts | 66° |
| 2026-04-29 00:32 | -23.25576 | -44.41725 | 21632 ft | 382 kts | 66° |
| 2026-04-29 00:32 | -23.24679 | -44.39048 | 21178 ft | 380 kts | 66° |
| 2026-04-29 00:33 | -23.23778 | -44.36361 | 20725 ft | 379 kts | 66° |
| 2026-04-29 00:33 | -23.22863 | -44.33635 | 20252 ft | 378 kts | 66° |
| 2026-04-29 00:33 | -23.21974 | -44.30987 | 19799 ft | 376 kts | 66° |
| 2026-04-29 00:33 | -23.21079 | -44.28325 | 19345 ft | 374 kts | 66° |
| 2026-04-29 00:34 | -23.20191 | -44.25682 | 18887 ft | 372 kts | 66° |
| 2026-04-29 00:34 | -23.19308 | -44.23054 | 18458 ft | 371 kts | 66° |
| 2026-04-29 00:34 | -23.18430 | -44.20444 | 17981 ft | 368 kts | 66° |
| 2026-04-29 00:34 | -23.17548 | -44.17824 | 17545 ft | 366 kts | 66° |
| 2026-04-29 00:35 | -23.16673 | -44.15227 | 17101 ft | 364 kts | 66° |
| 2026-04-29 00:35 | -23.15810 | -44.12667 | 16673 ft | 362 kts | 66° |
| 2026-04-29 00:35 | -23.14954 | -44.10131 | 16229 ft | 360 kts | 67° |
| 2026-04-29 00:35 | -23.14091 | -44.07577 | 15790 ft | 358 kts | 67° |
| 2026-04-29 00:36 | -23.13236 | -44.05046 | 15333 ft | 356 kts | 67° |
| 2026-04-29 00:36 | -23.12394 | -44.02554 | 14900 ft | 354 kts | 67° |
| 2026-04-29 00:36 | -23.11544 | -44.00042 | 14452 ft | 351 kts | 67° |
| 2026-04-29 00:36 | -23.10711 | -43.97577 | 14060 ft | 349 kts | 67° |
| 2026-04-29 00:37 | -23.09873 | -43.95104 | 13612 ft | 347 kts | 68° |
| 2026-04-29 00:37 | -23.09052 | -43.92683 | 13172 ft | 344 kts | 68° |
| 2026-04-29 00:37 | -23.08219 | -43.90225 | 12744 ft | 341 kts | 68° |
| 2026-04-29 00:37 | -23.07404 | -43.87826 | 12334 ft | 338 kts | 68° |
| 2026-04-29 00:38 | -23.06594 | -43.85444 | 11892 ft | 335 kts | 68° |
| 2026-04-29 00:38 | -23.05799 | -43.83114 | 11504 ft | 331 kts | 68° |
| 2026-04-29 00:38 | -23.04994 | -43.80759 | 11113 ft | 329 kts | 68° |
| 2026-04-29 00:38 | -23.04205 | -43.78447 | 10708 ft | 327 kts | 68° |
| 2026-04-29 00:39 | -23.03419 | -43.76144 | 10237 ft | 324 kts | 68° |
| 2026-04-29 00:39 | -23.02643 | -43.73868 | 9903 ft | 317 kts | 68° |
| 2026-04-29 00:39 | -23.01897 | -43.71672 | 9606 ft | 306 kts | 68° |
| 2026-04-29 00:39 | -23.01172 | -43.69544 | 9232 ft | 299 kts | 68° |
| 2026-04-29 00:40 | -23.00455 | -43.67440 | 8870 ft | 292 kts | 68° |
| 2026-04-29 00:40 | -22.99754 | -43.65390 | 8516 ft | 290 kts | 68° |
| 2026-04-29 00:40 | -22.99050 | -43.63335 | 8153 ft | 288 kts | 68° |
| 2026-04-29 00:40 | -22.98354 | -43.61300 | 7790 ft | 287 kts | 68° |
| 2026-04-29 00:41 | -22.97660 | -43.59271 | 7417 ft | 287 kts | 68° |
| 2026-04-29 00:41 | -22.96966 | -43.57240 | 7061 ft | 285 kts | 68° |
| 2026-04-29 00:41 | -22.96288 | -43.55253 | 6702 ft | 282 kts | 68° |
| 2026-04-29 00:41 | -22.95610 | -43.53268 | 6363 ft | 275 kts | 68° |
| 2026-04-29 00:42 | -22.94947 | -43.51329 | 6039 ft | 268 kts | 68° |
| 2026-04-29 00:42 | -22.94250 | -43.49484 | 5989 ft | 264 kts | 64° |
| 2026-04-29 00:42 | -22.93471 | -43.47662 | 5971 ft | 262 kts | 63° |
| 2026-04-29 00:42 | -22.92703 | -43.45910 | 5861 ft | 255 kts | 63° |
| 2026-04-29 00:43 | -22.91945 | -43.44165 | 5446 ft | 256 kts | 64° |
| 2026-04-29 00:43 | -22.91198 | -43.42415 | 4944 ft | 258 kts | 64° |
| 2026-04-29 00:43 | -22.90463 | -43.40683 | 4419 ft | 245 kts | 64° |
| 2026-04-29 00:43 | -22.89778 | -43.39062 | 4068 ft | 227 kts | 65° |
| 2026-04-29 00:44 | -22.89133 | -43.37537 | 3796 ft | 210 kts | 65° |
| 2026-04-29 00:44 | -22.88545 | -43.36151 | 3567 ft | 193 kts | 64° |
| 2026-04-29 00:44 | -22.88033 | -43.34856 | 3330 ft | 180 kts | 68° |
| 2026-04-29 00:44 | -22.87631 | -43.33616 | 3120 ft | 168 kts | 71° |
| 2026-04-29 00:45 | -22.87266 | -43.32419 | 2923 ft | 165 kts | 70° |
| 2026-04-29 00:45 | -22.86893 | -43.31239 | 2725 ft | 166 kts | 70° |
| 2026-04-29 00:45 | -22.86516 | -43.30067 | 2525 ft | 164 kts | 70° |
| 2026-04-29 00:45 | -22.86141 | -43.28900 | 2327 ft | 163 kts | 71° |
| 2026-04-29 00:46 | -22.85767 | -43.27739 | 2128 ft | 161 kts | 71° |
| 2026-04-29 00:46 | -22.85438 | -43.26570 | 1949 ft | 161 kts | 81° |
| 2026-04-29 00:46 | -22.85522 | -43.25354 | 1733 ft | 163 kts | 102° |
| 2026-04-29 00:46 | -22.85757 | -43.24171 | 1507 ft | 156 kts | 100° |
| 2026-04-29 00:47 | -22.85923 | -43.23054 | 1297 ft | 143 kts | 99° |
| 2026-04-29 00:47 | -22.86073 | -43.21973 | 1109 ft | 144 kts | 99° |
| 2026-04-29 00:47 | -22.86229 | -43.20908 | 1005 ft | 148 kts | 101° |
| 2026-04-29 00:47 | -22.86427 | -43.19809 | 764 ft | 148 kts | 104° |
| 2026-04-29 00:48 | -22.86665 | -43.18756 | 542 ft | 141 kts | 105° |
| 2026-04-29 00:48 | -22.86912 | -43.17739 | 472 ft | 135 kts | 111° |
| 2026-04-29 00:48 | -22.87387 | -43.16856 | 490 ft | 138 kts | 136° |
| 2026-04-29 00:48 | -22.88249 | -43.16391 | 473 ft | 142 kts | 170° |
| 2026-04-29 00:49 | -22.89283 | -43.16385 | 276 ft | 149 kts | 177° |
| 2026-04-29 00:49 | -22.90321 | -43.16333 | 88 ft | 149 kts | 175° |
| 2026-04-29 00:49 | -22.91288 | -43.16264 | 25 ft | 114 kts | 179° |
| 2026-04-29 00:49 | -22.91601 | -43.16246 | 24 ft | 75 kts | 176° |
| 2026-04-29 00:50 | -22.91603 | -43.16274 | 24 ft | 14 kts | 295° |
| 2026-04-29 00:50 | -22.91531 | -43.16370 | 25 ft | 16 kts | 315° |
| 2026-04-29 00:50 | -22.91454 | -43.16451 | 25 ft | 14 kts | 316° |
| 2026-04-29 00:51 | -22.91374 | -43.16502 | 26 ft | 12 kts | 354° |
| 2026-04-29 00:51 | -22.91315 | -43.16531 | 26 ft | 9 kts | 274° |
| 2026-04-29 00:51 | -22.91312 | -43.16583 | 26 ft | 0 kts | 269° |
| 2026-04-29 00:51 | -22.91312 | -43.16584 | 26 ft | 0 kts | 269° |